createdAt,value
2019-06-20T00:00:50.325Z,12.03
2019-06-20T00:03:58.298Z,11.50
2019-06-20T00:07:06.036Z,12.37
2019-06-20T00:10:13.742Z,10.87
2019-06-20T00:13:21.196Z,11.73
2019-06-20T00:16:28.640Z,11.43
2019-06-20T00:19:36.077Z,11.90
2019-06-20T00:22:43.594Z,11.90
2019-06-20T00:25:51.090Z,11.17
2019-06-20T00:28:58.583Z,11.67
2019-06-20T00:32:06.023Z,13.50
2019-06-20T00:35:13.606Z,12.10
2019-06-20T00:38:21.184Z,13.17
2019-06-20T00:41:28.654Z,13.03
2019-06-20T00:44:36.184Z,12.27
2019-06-20T00:47:43.691Z,12.10
2019-06-20T00:50:51.212Z,13.13
2019-06-20T00:53:58.667Z,12.53
2019-06-20T00:57:06.168Z,14.20
2019-06-20T01:00:14.540Z,14.00
2019-06-20T01:03:22.056Z,16.47
2019-06-20T01:06:29.588Z,15.07
2019-06-20T01:09:37.314Z,15.00
2019-06-20T01:12:44.794Z,15.90
2019-06-20T01:15:52.334Z,14.70
2019-06-20T01:19:01.187Z,15.10
2019-06-20T01:22:08.802Z,15.40
2019-06-20T01:25:16.459Z,15.97
2019-06-20T01:28:23.898Z,14.87
2019-06-20T01:31:31.706Z,15.20
2019-06-20T01:34:39.167Z,15.67
2019-06-20T01:37:47.776Z,15.87
2019-06-20T01:40:55.286Z,16.27
2019-06-20T01:44:02.795Z,14.77
2019-06-20T01:47:10.278Z,15.87
2019-06-20T01:50:18.181Z,16.50
2019-06-20T01:53:25.664Z,14.93
2019-06-20T01:56:33.164Z,14.47
2019-06-20T01:59:40.682Z,16.07
2019-06-20T02:02:48.138Z,15.37
2019-06-20T02:05:55.661Z,16.03
2019-06-20T02:09:03.667Z,15.33
2019-06-20T02:12:11.455Z,18.30
2019-06-20T02:15:19.133Z,17.53
2019-06-20T02:18:27.097Z,16.73
2019-06-20T02:21:34.606Z,17.10
2019-06-20T02:24:42.401Z,16.13
2019-06-20T02:27:50.060Z,17.43
2019-06-20T02:30:57.596Z,17.20
2019-06-20T02:34:05.312Z,17.33
2019-06-20T02:37:12.764Z,16.00
2019-06-20T02:40:20.256Z,15.90
2019-06-20T02:43:27.934Z,15.57
2019-06-20T02:46:35.476Z,15.70
2019-06-20T02:49:42.901Z,15.30
2019-06-20T02:52:50.368Z,16.90
2019-06-20T02:55:57.809Z,15.20
2019-06-20T02:59:05.364Z,14.87
2019-06-20T03:02:12.849Z,15.97
2019-06-20T03:05:20.339Z,16.43
2019-06-20T03:08:28.004Z,15.13
2019-06-20T03:11:35.618Z,14.07
2019-06-20T03:14:45.732Z,13.20
2019-06-20T03:17:52.251Z,17.50
2019-06-20T03:20:59.790Z,17.43
2019-06-20T03:24:07.296Z,18.70
2019-06-20T03:27:14.761Z,17.60
2019-06-20T03:30:22.380Z,18.20
2019-06-20T03:33:29.897Z,17.40
2019-06-20T03:36:37.364Z,17.80
2019-06-20T03:39:44.890Z,19.70
2019-06-20T03:42:52.477Z,19.77
2019-06-20T03:46:00.017Z,18.60
2019-06-20T03:49:07.610Z,20.73
2019-06-20T03:52:15.088Z,20.10
2019-06-20T03:55:22.556Z,20.60
2019-06-20T03:58:31.031Z,20.30
2019-06-20T04:01:38.506Z,18.53
2019-06-20T04:04:45.944Z,17.97
2019-06-20T04:07:53.464Z,16.70
2019-06-20T04:11:00.990Z,15.00
2019-06-20T04:14:08.483Z,13.60
2019-06-20T04:17:16.045Z,12.90
2019-06-20T04:20:23.532Z,13.90
2019-06-20T04:23:30.978Z,13.37
2019-06-20T04:26:38.507Z,13.17
2019-06-20T04:29:45.979Z,13.23
2019-06-20T04:32:53.494Z,13.20
2019-06-20T04:36:00.956Z,14.30
2019-06-20T04:39:18.783Z,13.70
2019-06-20T04:42:18.815Z,14.37
2019-06-20T04:45:47.668Z,14.27
2019-06-20T04:48:55.202Z,13.47
2019-06-20T04:52:02.634Z,12.73
2019-06-20T04:55:10.646Z,13.50
2019-06-20T04:58:18.431Z,13.17
2019-06-20T05:01:27.180Z,14.07
2019-06-20T05:04:34.737Z,12.90
2019-06-20T05:07:42.204Z,14.30
2019-06-20T05:10:49.657Z,14.17
2019-06-20T05:13:57.206Z,16.27
2019-06-20T05:17:07.080Z,14.53
2019-06-20T05:20:13.866Z,12.30
2019-06-20T05:23:21.448Z,13.73
2019-06-20T05:26:28.901Z,13.30
2019-06-20T05:29:36.412Z,14.17
2019-06-20T05:32:43.895Z,13.77
2019-06-20T05:35:51.692Z,13.20
2019-06-20T05:38:59.255Z,11.97
2019-06-20T05:42:06.896Z,13.57
2019-06-20T05:45:14.439Z,13.00
2019-06-20T05:48:21.978Z,12.03
2019-06-20T05:51:29.847Z,12.23
2019-06-20T05:54:37.395Z,12.00
2019-06-20T05:57:44.820Z,13.07
2019-06-20T06:00:52.373Z,12.50
2019-06-20T06:03:59.860Z,10.80
2019-06-20T06:07:07.466Z,11.10
2019-06-20T06:10:15.035Z,10.90
2019-06-20T06:13:22.702Z,10.23
2019-06-20T06:16:30.251Z,10.00
2019-06-20T06:19:37.753Z,10.40
2019-06-20T06:22:45.276Z,11.20
2019-06-20T06:25:52.757Z,11.10
2019-06-20T06:29:00.244Z,9.70
2019-06-20T06:32:07.672Z,10.23
2019-06-20T06:35:15.173Z,11.00
2019-06-20T06:38:23.600Z,11.17
2019-06-20T06:41:32.143Z,9.80
2019-06-20T06:44:39.600Z,10.80
2019-06-20T06:47:47.152Z,10.63
2019-06-20T06:50:54.841Z,11.73
2019-06-20T06:54:02.339Z,12.13
2019-06-20T06:57:09.797Z,10.57
2019-06-20T07:00:18.508Z,9.63
2019-06-20T07:03:26.025Z,8.60
2019-06-20T07:06:33.486Z,10.20
2019-06-20T07:09:40.968Z,9.57
2019-06-20T07:12:48.394Z,9.20
2019-06-20T07:15:55.960Z,9.23
2019-06-20T07:19:03.530Z,9.50
2019-06-20T07:22:10.977Z,9.90
2019-06-20T07:25:18.700Z,8.07
2019-06-20T07:28:26.258Z,8.30
2019-06-20T07:31:33.735Z,8.10
2019-06-20T07:34:41.183Z,7.90
2019-06-20T07:37:48.725Z,8.57
2019-06-20T07:40:56.218Z,8.80
2019-06-20T07:44:03.757Z,8.60
2019-06-20T07:47:17.483Z,9.33
2019-06-20T07:50:20.258Z,8.97
2019-06-20T07:53:27.727Z,8.70
2019-06-20T07:56:35.181Z,10.00
2019-06-20T07:59:42.664Z,9.50
2019-06-20T08:02:50.112Z,9.30
2019-06-20T08:05:57.703Z,8.37
2019-06-20T08:09:08.778Z,8.70
2019-06-20T08:12:16.270Z,9.30
2019-06-20T08:15:24.211Z,8.97
2019-06-20T08:18:31.733Z,8.80
2019-06-20T08:21:39.180Z,9.47
2019-06-20T08:24:46.627Z,9.00
2019-06-20T08:27:54.194Z,8.97
2019-06-20T08:31:02.566Z,8.67
2019-06-20T08:34:11.260Z,8.50
2019-06-20T08:37:18.726Z,8.47
2019-06-20T08:40:27.389Z,8.00
2019-06-20T08:43:34.855Z,8.10
2019-06-20T08:46:42.384Z,8.97
2019-06-20T08:49:49.849Z,9.20
2019-06-20T08:52:58.032Z,9.10
2019-06-20T08:56:06.323Z,8.20
2019-06-20T08:59:23.909Z,8.50
2019-06-20T09:02:22.842Z,9.03
2019-06-20T09:05:31.117Z,11.50
2019-06-20T09:08:38.854Z,8.70
2019-06-20T09:11:46.292Z,8.00
2019-06-20T09:14:55.092Z,10.23
2019-06-20T09:18:02.987Z,8.30
2019-06-20T09:21:10.631Z,8.37
2019-06-20T09:24:18.095Z,9.40
2019-06-20T09:27:25.549Z,9.53
2019-06-20T09:30:33.441Z,9.87
2019-06-20T09:33:40.873Z,8.43
2019-06-20T09:36:48.319Z,9.07
2019-06-20T09:39:57.156Z,8.03
2019-06-20T09:43:04.813Z,8.50
2019-06-20T09:46:12.323Z,9.13
2019-06-20T09:49:20.040Z,9.53
2019-06-20T09:52:27.597Z,10.00
2019-06-20T09:55:35.161Z,9.07
2019-06-20T09:58:42.645Z,10.60
2019-06-20T10:01:51.338Z,10.63
2019-06-20T10:04:59.229Z,9.80
2019-06-20T10:08:06.905Z,10.83
2019-06-20T10:11:14.472Z,10.90
2019-06-20T10:14:22.143Z,9.97
2019-06-20T10:17:29.632Z,10.10
2019-06-20T10:20:39.100Z,9.90
2019-06-20T10:23:47.743Z,9.37
2019-06-20T10:26:55.314Z,9.20
2019-06-20T10:30:13.797Z,9.90
2019-06-20T10:33:11.928Z,10.20
2019-06-20T10:36:19.403Z,7.27
2019-06-20T10:39:26.859Z,9.30
2019-06-20T10:42:34.499Z,9.13
2019-06-20T10:45:44.074Z,9.17
2019-06-20T10:48:52.705Z,9.70
2019-06-20T10:52:00.293Z,11.13
2019-06-20T10:55:09.499Z,9.93
2019-06-20T10:58:16.947Z,9.90
2019-06-20T11:01:24.398Z,11.27
2019-06-20T11:04:31.914Z,10.60
2019-06-20T11:07:40.757Z,10.10
2019-06-20T11:10:49.261Z,11.43
2019-06-20T11:13:56.902Z,11.80
2019-06-20T11:17:04.374Z,12.00
2019-06-20T11:20:12.633Z,10.67
2019-06-20T11:23:20.125Z,12.30
2019-06-20T11:26:27.587Z,13.17
2019-06-20T11:29:35.127Z,12.43
2019-06-20T11:32:43.509Z,12.97
2019-06-20T11:35:51.182Z,14.20
2019-06-20T11:38:58.765Z,12.63
2019-06-20T11:42:06.227Z,14.00
2019-06-20T11:45:14.397Z,11.20
2019-06-20T11:48:21.854Z,14.40
2019-06-20T11:51:29.320Z,13.73
2019-06-20T11:54:38.198Z,12.70
2019-06-20T11:57:45.897Z,14.07
2019-06-20T12:01:03.652Z,14.30
2019-06-20T12:04:03.611Z,14.03
2019-06-20T12:07:12.258Z,17.20
2019-06-20T12:10:19.965Z,13.63
2019-06-20T12:13:27.497Z,13.53
2019-06-20T12:16:34.947Z,14.67
2019-06-20T12:19:42.523Z,13.77
2019-06-20T12:22:51.031Z,13.27
2019-06-20T12:25:58.582Z,13.70
2019-06-20T12:29:06.106Z,14.73
2019-06-20T12:32:13.679Z,14.50
2019-06-20T12:35:21.333Z,13.47
2019-06-20T12:38:28.834Z,13.30
2019-06-20T12:41:36.425Z,12.80
2019-06-20T12:44:44.239Z,11.30
2019-06-20T12:47:51.817Z,12.90
2019-06-20T12:50:59.347Z,12.33
2019-06-20T12:54:06.872Z,12.33
2019-06-20T12:57:14.365Z,13.20
2019-06-20T13:00:24.011Z,10.90
2019-06-20T13:03:31.509Z,9.93
2019-06-20T13:06:40.475Z,13.20
2019-06-20T13:09:48.372Z,11.30
2019-06-20T13:12:55.999Z,11.23
2019-06-20T13:16:03.564Z,10.57
2019-06-20T13:19:11.021Z,10.13
2019-06-20T13:22:18.546Z,10.70
2019-06-20T13:25:26.036Z,12.50
2019-06-20T13:28:33.555Z,12.20
2019-06-20T13:31:56.503Z,12.47
2019-06-20T13:34:50.086Z,12.87
2019-06-20T13:37:57.930Z,12.40
2019-06-20T13:41:05.591Z,11.00
2019-06-20T13:44:14.445Z,11.67
2019-06-20T13:47:22.256Z,11.47
2019-06-20T13:50:29.938Z,11.90
2019-06-20T13:53:39.084Z,11.90
2019-06-20T13:56:47.528Z,11.10
2019-06-20T13:59:55.101Z,11.07
2019-06-20T14:03:02.659Z,11.70
2019-06-20T14:06:10.353Z,11.30
2019-06-20T14:09:17.780Z,11.93
2019-06-20T14:12:25.259Z,13.20
2019-06-20T14:15:32.780Z,12.27
2019-06-20T14:18:42.564Z,12.77
2019-06-20T14:21:50.716Z,12.30
2019-06-20T14:24:58.160Z,11.70
2019-06-20T14:28:05.615Z,13.63
2019-06-20T14:31:13.243Z,14.20
2019-06-20T14:34:20.831Z,12.33
2019-06-20T14:37:28.395Z,13.87
2019-06-20T14:40:35.813Z,13.77
2019-06-20T14:43:44.729Z,13.00
2019-06-20T14:46:52.739Z,15.20
2019-06-20T14:50:01.666Z,14.17
2019-06-20T14:53:09.161Z,12.83
2019-06-20T14:56:16.630Z,16.43
2019-06-20T14:59:24.139Z,14.60
2019-06-20T15:02:38.428Z,14.90
2019-06-20T15:05:41.177Z,14.20
2019-06-20T15:08:49.194Z,13.90
2019-06-20T15:11:57.851Z,13.77
2019-06-20T15:15:05.508Z,11.27
2019-06-20T15:18:13.357Z,13.20
2019-06-20T15:21:21.228Z,13.27
2019-06-20T15:24:29.101Z,14.13
2019-06-20T15:27:36.553Z,12.90
2019-06-20T15:30:44.034Z,12.83
2019-06-20T15:33:51.965Z,12.70
2019-06-20T15:37:01.218Z,12.90
2019-06-20T15:40:09.361Z,12.77
2019-06-20T15:43:16.901Z,12.60
2019-06-20T15:46:24.355Z,12.40
2019-06-20T15:49:31.926Z,11.47
2019-06-20T15:52:39.454Z,11.20
2019-06-20T15:55:46.939Z,11.80
2019-06-20T15:58:55.405Z,11.37
2019-06-20T16:02:02.905Z,10.60
2019-06-20T16:05:11.293Z,11.63
2019-06-20T16:08:18.849Z,11.60
2019-06-20T16:11:26.314Z,13.00
2019-06-20T16:14:33.829Z,10.80
2019-06-20T16:17:41.302Z,12.17
2019-06-20T16:20:48.894Z,11.10
2019-06-20T16:23:56.339Z,10.57
2019-06-20T16:27:03.883Z,11.73
2019-06-20T16:30:12.140Z,12.00
2019-06-20T16:33:25.075Z,12.07
2019-06-20T16:36:28.836Z,11.30
2019-06-20T16:39:36.380Z,11.93
2019-06-20T16:42:43.807Z,12.23
2019-06-20T16:45:51.372Z,12.80
2019-06-20T16:48:59.000Z,12.20
2019-06-20T16:52:06.509Z,11.57
2019-06-20T16:55:13.995Z,11.67
2019-06-20T16:58:21.551Z,11.53
2019-06-20T17:01:29.048Z,11.63
2019-06-20T17:04:36.522Z,10.37
2019-06-20T17:07:43.951Z,10.33
2019-06-20T17:10:51.505Z,10.93
2019-06-20T17:13:58.991Z,10.67
2019-06-20T17:17:06.591Z,10.67
2019-06-20T17:20:14.808Z,10.30
2019-06-20T17:23:22.388Z,10.73
2019-06-20T17:26:30.099Z,11.50
2019-06-20T17:29:37.708Z,10.47
2019-06-20T17:32:45.159Z,10.87
2019-06-20T17:35:52.720Z,10.97
2019-06-20T17:39:00.191Z,10.27
2019-06-20T17:42:07.670Z,10.03
2019-06-20T17:45:15.784Z,11.20
2019-06-20T17:48:23.281Z,10.90
2019-06-20T17:51:30.722Z,10.20
2019-06-20T17:54:38.247Z,14.20
2019-06-20T17:57:45.702Z,11.70
2019-06-20T18:00:53.195Z,11.23
2019-06-20T18:04:12.847Z,11.30
2019-06-20T18:07:10.887Z,12.00
2019-06-20T18:10:19.430Z,11.80
2019-06-20T18:13:26.987Z,12.93
2019-06-20T18:16:34.448Z,13.20
2019-06-20T18:19:41.998Z,12.30
2019-06-20T18:22:49.573Z,12.30
2019-06-20T18:25:57.053Z,13.70
2019-06-20T18:29:04.598Z,12.87
2019-06-20T18:32:12.102Z,12.90
2019-06-20T18:35:19.640Z,11.00
2019-06-20T18:38:27.115Z,11.60
2019-06-20T18:41:34.624Z,12.50
2019-06-20T18:44:42.414Z,10.73
2019-06-20T18:47:49.931Z,11.53
2019-06-20T18:50:57.405Z,12.37
2019-06-20T18:54:05.185Z,11.80
2019-06-20T18:57:12.728Z,12.00
2019-06-20T19:00:33.624Z,12.90
2019-06-20T19:03:29.933Z,13.80
2019-06-20T19:06:37.532Z,13.53
2019-06-20T19:09:45.046Z,13.20
2019-06-20T19:12:52.738Z,13.13
2019-06-20T19:16:01.309Z,14.57
2019-06-20T19:19:08.718Z,14.20
2019-06-20T19:22:16.289Z,14.30
2019-06-20T19:25:24.199Z,14.90
2019-06-20T19:28:32.447Z,14.30
2019-06-20T19:31:40.256Z,13.50
2019-06-20T19:35:01.021Z,13.57
2019-06-20T19:37:56.944Z,16.37
2019-06-20T19:41:04.467Z,16.20
2019-06-20T19:44:12.098Z,14.10
2019-06-20T19:47:19.586Z,14.33
2019-06-20T19:50:27.890Z,14.20
2019-06-20T19:53:35.355Z,13.07
2019-06-20T19:56:42.820Z,14.03
2019-06-20T19:59:50.537Z,12.93
2019-06-20T20:02:58.176Z,13.37
2019-06-20T20:06:05.960Z,13.10
2019-06-20T20:09:13.505Z,13.07
2019-06-20T20:12:21.084Z,14.90
2019-06-20T20:15:28.631Z,14.43
2019-06-20T20:18:36.054Z,14.63
2019-06-20T20:21:43.530Z,13.90
2019-06-20T20:24:51.006Z,16.13
2019-06-20T20:27:58.478Z,14.87
2019-06-20T20:31:06.012Z,16.73
2019-06-20T20:34:13.532Z,18.10
2019-06-20T20:37:21.034Z,17.77
2019-06-20T20:40:28.618Z,18.80
2019-06-20T20:43:36.080Z,18.40
2019-06-20T20:46:43.598Z,18.27
2019-06-20T20:49:51.167Z,18.17
2019-06-20T20:52:58.794Z,17.10
2019-06-20T20:56:06.418Z,15.83
2019-06-20T20:59:14.275Z,16.60
2019-06-20T21:02:21.730Z,16.37
2019-06-20T21:05:29.259Z,15.30
2019-06-20T21:08:36.763Z,15.43
2019-06-20T21:11:44.216Z,16.33
2019-06-20T21:14:52.832Z,13.60
2019-06-20T21:18:00.378Z,14.93
2019-06-20T21:21:07.868Z,14.30
2019-06-20T21:24:15.454Z,14.77
2019-06-20T21:27:23.186Z,12.80
2019-06-20T21:30:30.666Z,11.90
2019-06-20T21:33:39.250Z,12.23
2019-06-20T21:36:46.871Z,11.93
2019-06-20T21:39:54.321Z,11.07
2019-06-20T21:43:02.158Z,11.10
2019-06-20T21:46:09.670Z,10.40
2019-06-20T21:49:17.144Z,10.47
2019-06-20T21:52:24.964Z,10.37
2019-06-20T21:55:32.479Z,11.23
2019-06-20T21:58:40.016Z,11.67
2019-06-20T22:01:48.507Z,9.20
2019-06-20T22:04:56.316Z,10.37
2019-06-20T22:08:04.009Z,10.10
2019-06-20T22:11:11.837Z,9.13
2019-06-20T22:14:19.431Z,10.00
2019-06-20T22:17:27.224Z,10.90
2019-06-20T22:20:35.467Z,10.90
2019-06-20T22:23:42.915Z,11.57
2019-06-20T22:26:51.019Z,11.77
2019-06-20T22:29:58.515Z,11.70
2019-06-20T22:33:06.017Z,11.03
2019-06-20T22:36:13.547Z,10.93
2019-06-20T22:39:21.077Z,10.27
2019-06-20T22:42:28.745Z,11.27
2019-06-20T22:45:36.227Z,11.17
2019-06-20T22:48:43.795Z,9.53
2019-06-20T22:51:51.322Z,10.60
2019-06-20T22:54:58.786Z,9.27
2019-06-20T22:58:06.906Z,9.60
2019-06-20T23:01:14.715Z,9.80
2019-06-20T23:04:22.175Z,10.30
2019-06-20T23:07:29.690Z,9.80
2019-06-20T23:10:37.180Z,9.03
2019-06-20T23:13:44.782Z,11.77
2019-06-20T23:16:52.277Z,11.70
2019-06-20T23:19:59.774Z,12.10
2019-06-20T23:23:07.354Z,10.97
2019-06-20T23:26:15.309Z,10.20
2019-06-20T23:29:25.720Z,11.83
2019-06-20T23:32:33.156Z,12.83
2019-06-20T23:35:40.608Z,13.70
2019-06-20T23:38:48.159Z,14.30
2019-06-20T23:41:55.654Z,13.27
2019-06-20T23:45:03.371Z,12.70
2019-06-20T23:48:10.999Z,12.70
2019-06-20T23:51:25.250Z,11.30
2019-06-20T23:54:28.332Z,10.80
2019-06-20T23:57:35.884Z,10.80
